Time;durP1;ratioP1;P1;durP2;ratioP2;P2;SDS_P1;SDS_P2;PMS_P1;PMS_P2;Temp;Humidity;BMP_temperature;BMP_pressure;BME280_temperature;BME280_humidity;BME280_pressure;Samples;Min_cycle;Max_cycle;Signal;HPM_P1;HPM_P2
2023/04/25 00:00:07;;;;;;;16.92;4.32;;;;;;;;;;4845898;29;20128;-89
2023/04/25 00:02:34;;;;;;;15.70;4.57;;;;;;;;;;4830696;29;20056;-88
2023/04/25 00:05:01;;;;;;;11.70;4.38;;;;;;;;;;4847285;29;20056;-88
2023/04/25 00:07:27;;;;;;;13.57;4.07;;;;;;;;;;4832864;29;20069;-89
2023/04/25 00:09:54;;;;;;;22.77;4.82;;;;;;;;;;4845666;29;20045;-88
2023/04/25 00:12:21;;;;;;;14.52;3.65;;;;;;;;;;4861335;29;20052;-88
2023/04/25 00:14:49;;;;;;;18.55;4.63;;;;;;;;;;4831047;29;20041;-88
2023/04/25 00:17:16;;;;;;;12.27;3.63;;;;;;;;;;4861144;29;20057;-88
2023/04/25 00:19:44;;;;;;;18.63;4.35;;;;;;;;;;4831136;29;20045;-89
2023/04/25 00:22:11;;;;;;;19.98;3.83;;;;;;;;;;4849045;29;20048;-88
2023/04/25 00:24:37;;;;;;;18.70;4.30;;;;;;;;;;4834102;29;20056;-88
2023/04/25 00:27:03;;;;;;;12.15;3.63;;;;;;;;;;4849236;29;20052;-88
2023/04/25 00:29:29;;;;;;;8.63;3.80;;;;;;;;;;4849071;29;20132;-89
2023/04/25 00:31:55;;;;;;;10.10;4.15;;;;;;;;;;4848925;29;20060;-88
2023/04/25 00:34:22;;;;;;;11.43;2.63;;;;;;;;;;4833709;29;20053;-88
2023/04/25 00:36:48;;;;;;;9.68;3.50;;;;;;;;;;4833704;29;20056;-88
2023/04/25 00:39:14;;;;;;;15.75;2.83;;;;;;;;;;4833573;29;20136;-88
2023/04/25 00:41:40;;;;;;;15.70;3.65;;;;;;;;;;4848865;29;20060;-89
2023/04/25 00:44:06;;;;;;;13.85;3.72;;;;;;;;;;4833562;29;20060;-89
2023/04/25 00:46:33;;;;;;;12.73;2.92;;;;;;;;;;4848663;29;20087;-88
2023/04/25 00:48:59;;;;;;;11.30;3.83;;;;;;;;;;4849117;29;20056;-91
2023/04/25 00:51:26;;;;;;;23.13;6.65;;;;;;;;;;4848901;29;20076;-88
2023/04/25 00:53:53;;;;;;;14.15;3.85;;;;;;;;;;4863969;29;20089;-89
2023/04/25 00:56:20;;;;;;;20.75;3.30;;;;;;;;;;4833438;29;20045;-92
2023/04/25 00:58:46;;;;;;;13.13;3.63;;;;;;;;;;4833243;29;20045;-89
2023/04/25 01:01:12;;;;;;;12.38;3.75;;;;;;;;;;4863809;29;20092;-89
2023/04/25 01:03:42;;;;;;;16.30;5.20;;;;;;;;;;4863846;29;20049;-90
2023/04/25 01:06:11;;;;;;;12.70;3.88;;;;;;;;;;4848578;29;20494;-89
2023/04/25 01:08:38;;;;;;;13.57;3.08;;;;;;;;;;4848492;29;20513;-90
2023/04/25 01:11:04;;;;;;;12.63;3.42;;;;;;;;;;4848414;29;20565;-88
2023/04/25 01:13:31;;;;;;;11.40;3.60;;;;;;;;;;4832986;29;20041;-90
2023/04/25 01:15:58;;;;;;;8.77;2.17;;;;;;;;;;4833288;29;20421;-89
2023/04/25 01:18:24;;;;;;;12.18;2.78;;;;;;;;;;4848104;29;20112;-89
2023/04/25 01:20:53;;;;;;;11.43;3.78;;;;;;;;;;4848285;29;20041;-89
2023/04/25 01:23:20;;;;;;;9.80;3.22;;;;;;;;;;4847950;29;20098;-89
2023/04/25 01:25:47;;;;;;;11.10;2.90;;;;;;;;;;4848445;29;20053;-88
2023/04/25 01:28:13;;;;;;;7.97;2.75;;;;;;;;;;4848410;29;20068;-90
2023/04/25 01:30:39;;;;;;;19.40;2.97;;;;;;;;;;4833101;29;20052;-88
2023/04/25 01:33:06;;;;;;;12.43;3.17;;;;;;;;;;4846872;29;20052;-89
2023/04/25 01:35:32;;;;;;;13.75;3.42;;;;;;;;;;4863573;29;20056;-89
2023/04/25 01:37:58;;;;;;;9.65;3.08;;;;;;;;;;4847869;29;20053;-89
2023/04/25 01:40:25;;;;;;;19.85;3.70;;;;;;;;;;4862778;29;20115;-89
2023/04/25 01:42:54;;;;;;;16.65;3.70;;;;;;;;;;4848100;29;20447;-89
2023/04/25 01:45:20;;;;;;;11.50;3.55;;;;;;;;;;4863419;29;20045;-89
2023/04/25 01:47:49;;;;;;;15.13;3.63;;;;;;;;;;4847575;29;20053;-89
2023/04/25 01:50:15;;;;;;;15.35;3.85;;;;;;;;;;4833024;29;20041;-89
2023/04/25 01:52:41;;;;;;;10.05;3.47;;;;;;;;;;4847677;29;20057;-88
2023/04/25 01:55:08;;;;;;;15.88;4.30;;;;;;;;;;4832581;29;20049;-88
2023/04/25 01:57:34;;;;;;;11.80;3.03;;;;;;;;;;4862846;29;20136;-88
2023/04/25 02:00:01;;;;;;;9.48;3.03;;;;;;;;;;4832670;29;20052;-90
2023/04/25 02:02:27;;;;;;;15.80;4.05;;;;;;;;;;4832527;29;20055;-89
2023/04/25 02:04:54;;;;;;;11.18;2.85;;;;;;;;;;4847316;29;20384;-91
2023/04/25 02:07:20;;;;;;;12.13;3.80;;;;;;;;;;4847442;29;20109;-89
2023/04/25 02:09:46;;;;;;;8.95;3.08;;;;;;;;;;4832516;29;20375;-88
2023/04/25 02:12:15;;;;;;;5.68;3.08;;;;;;;;;;4848512;29;20041;-91
2023/04/25 02:14:42;;;;;;;21.55;3.85;;;;;;;;;;4832072;29;20045;-88
2023/04/25 02:17:08;;;;;;;8.98;2.53;;;;;;;;;;4832464;29;20049;-89
2023/04/25 02:19:34;;;;;;;7.10;2.97;;;;;;;;;;4847726;29;20071;-89
2023/04/25 02:22:00;;;;;;;10.85;3.00;;;;;;;;;;4832558;29;20045;-88
2023/04/25 02:24:27;;;;;;;12.63;3.63;;;;;;;;;;4832050;29;20389;-88
2023/04/25 02:26:55;;;;;;;10.80;2.80;;;;;;;;;;4862251;29;20045;-88
2023/04/25 02:29:21;;;;;;;10.20;3.10;;;;;;;;;;4862459;29;20451;-88
2023/04/25 02:31:47;;;;;;;13.60;3.00;;;;;;;;;;4831935;29;20140;-88
2023/04/25 02:34:13;;;;;;;11.85;2.70;;;;;;;;;;4846842;29;20104;-88
2023/04/25 02:36:39;;;;;;;8.05;2.50;;;;;;;;;;4862551;29;20044;-89
2023/04/25 02:39:06;;;;;;;11.07;2.90;;;;;;;;;;4831997;29;20053;-89
2023/04/25 02:41:32;;;;;;;12.27;3.30;;;;;;;;;;4846862;29;20097;-90
2023/04/25 02:43:58;;;;;;;22.85;3.05;;;;;;;;;;4846415;29;20049;-88
2023/04/25 02:46:24;;;;;;;12.57;2.90;;;;;;;;;;4846727;29;20041;-88
2023/04/25 02:48:50;;;;;;;7.45;2.85;;;;;;;;;;4846520;29;20464;-88
2023/04/25 02:51:16;;;;;;;10.70;2.42;;;;;;;;;;4846294;29;20048;-89
2023/04/25 02:53:42;;;;;;;8.60;2.38;;;;;;;;;;4846841;29;20061;-89
2023/04/25 02:56:08;;;;;;;5.10;2.50;;;;;;;;;;4831508;29;20052;-89
2023/04/25 02:58:34;;;;;;;10.43;2.83;;;;;;;;;;4846501;29;20048;-89
2023/04/25 03:01:00;;;;;;;9.82;2.75;;;;;;;;;;4846469;29;20101;-90
2023/04/25 03:03:26;;;;;;;5.57;2.25;;;;;;;;;;4846795;29;20060;-89
2023/04/25 03:05:53;;;;;;;8.80;2.92;;;;;;;;;;4861856;29;20076;-89
2023/04/25 03:08:19;;;;;;;12.13;2.83;;;;;;;;;;4846375;29;20487;-88
2023/04/25 03:10:45;;;;;;;9.23;3.05;;;;;;;;;;4861646;29;20132;-88
2023/04/25 03:13:11;;;;;;;8.77;2.75;;;;;;;;;;4861699;29;20124;-88
2023/04/25 03:15:38;;;;;;;6.75;1.90;;;;;;;;;;4861879;29;20127;-89
2023/04/25 03:18:05;;;;;;;6.97;2.20;;;;;;;;;;4846351;29;20483;-89
2023/04/25 03:20:31;;;;;;;14.07;3.22;;;;;;;;;;4846257;29;20048;-88
2023/04/25 03:22:57;;;;;;;6.90;2.40;;;;;;;;;;4846232;29;20045;-88
2023/04/25 03:25:23;;;;;;;15.05;2.90;;;;;;;;;;4831245;29;20073;-87
2023/04/25 03:27:49;;;;;;;8.35;2.92;;;;;;;;;;4846534;29;20049;-88
2023/04/25 03:30:15;;;;;;;13.95;4.03;;;;;;;;;;4831573;29;20410;-89
2023/04/25 03:32:41;;;;;;;6.70;3.03;;;;;;;;;;4846206;29;20144;-89
2023/04/25 03:35:07;;;;;;;9.57;2.17;;;;;;;;;;4831151;29;20053;-88
2023/04/25 03:37:34;;;;;;;11.25;2.70;;;;;;;;;;4831306;29;20045;-88
2023/04/25 03:40:00;;;;;;;9.95;2.42;;;;;;;;;;4846167;29;20240;-88
2023/04/25 03:42:26;;;;;;;16.33;3.03;;;;;;;;;;4831201;29;20056;-88
2023/04/25 03:44:52;;;;;;;20.77;2.72;;;;;;;;;;4846522;29;20442;-88
2023/04/25 03:47:18;;;;;;;7.35;2.70;;;;;;;;;;4846702;29;20529;-88
2023/04/25 03:49:45;;;;;;;12.10;2.90;;;;;;;;;;4846331;29;20498;-89
2023/04/25 03:52:11;;;;;;;10.13;2.80;;;;;;;;;;4830801;29;20068;-88
2023/04/25 03:54:37;;;;;;;6.47;2.40;;;;;;;;;;4846391;29;20048;-88
2023/04/25 03:57:03;;;;;;;13.38;2.95;;;;;;;;;;4850577;29;20045;-88
2023/04/25 03:59:29;;;;;;;9.10;2.42;;;;;;;;;;4865387;29;20049;-88
2023/04/25 04:01:55;;;;;;;12.13;2.65;;;;;;;;;;4849776;29;20056;-89
2023/04/25 04:04:21;;;;;;;6.78;2.63;;;;;;;;;;4834510;29;20049;-88
2023/04/25 04:06:47;;;;;;;16.08;4.03;;;;;;;;;;4834469;29;20112;-89
2023/04/25 04:09:13;;;;;;;12.95;3.15;;;;;;;;;;4849629;29;20496;-89
2023/04/25 04:11:40;;;;;;;10.95;3.17;;;;;;;;;;4848992;29;20064;-89
2023/04/25 04:14:06;;;;;;;12.18;2.40;;;;;;;;;;4849571;29;20140;-89
2023/04/25 04:16:33;;;;;;;4.50;2.33;;;;;;;;;;4865242;29;20103;-89
2023/04/25 04:18:59;;;;;;;10.27;2.45;;;;;;;;;;4849407;29;20097;-90
2023/04/25 04:21:26;;;;;;;11.65;3.42;;;;;;;;;;4849725;29;20068;-90
2023/04/25 04:23:52;;;;;;;14.90;3.40;;;;;;;;;;4849713;29;20537;-89
2023/04/25 04:26:18;;;;;;;11.48;3.13;;;;;;;;;;4849496;29;20091;-90
2023/04/25 04:28:44;;;;;;;9.80;2.65;;;;;;;;;;4834252;29;20097;-90
2023/04/25 04:31:11;;;;;;;7.25;3.38;;;;;;;;;;4833884;29;20081;-90
2023/04/25 04:33:37;;;;;;;10.15;2.40;;;;;;;;;;4849329;29;20118;-89
2023/04/25 04:36:04;;;;;;;14.40;2.70;;;;;;;;;;4849741;29;20487;-88
2023/04/25 04:38:30;;;;;;;29.05;3.10;;;;;;;;;;4849570;29;20053;-89
2023/04/25 04:40:57;;;;;;;6.93;2.97;;;;;;;;;;4864913;29;20045;-89
2023/04/25 04:43:23;;;;;;;13.43;4.03;;;;;;;;;;4835190;29;20148;-89
2023/04/25 04:45:50;;;;;;;7.55;2.30;;;;;;;;;;4849663;29;20045;-89
2023/04/25 04:48:17;;;;;;;13.18;3.13;;;;;;;;;;4835146;29;20045;-88
2023/04/25 04:50:47;;;;;;;8.77;2.90;;;;;;;;;;4881572;29;20049;-88
2023/04/25 04:53:13;;;;;;;11.20;2.58;;;;;;;;;;4849279;29;20061;-89
2023/04/25 04:55:41;;;;;;;10.65;3.45;;;;;;;;;;4849058;29;20052;-89
2023/04/25 04:58:07;;;;;;;8.18;2.50;;;;;;;;;;4864860;29;20591;-88
2023/04/25 05:00:34;;;;;;;8.23;2.63;;;;;;;;;;4849170;29;20049;-88
2023/04/25 05:03:00;;;;;;;8.60;2.67;;;;;;;;;;4849922;29;20049;-89
2023/04/25 05:05:26;;;;;;;12.35;2.72;;;;;;;;;;4834202;29;20084;-88
2023/04/25 05:07:52;;;;;;;14.10;3.65;;;;;;;;;;4848885;29;20119;-88
2023/04/25 05:10:20;;;;;;;10.63;2.60;;;;;;;;;;4848859;29;20052;-89
2023/04/25 05:12:46;;;;;;;6.68;2.63;;;;;;;;;;4849208;29;20049;-88
2023/04/25 05:15:12;;;;;;;3.97;2.08;;;;;;;;;;4864611;29;20097;-89
2023/04/25 05:17:38;;;;;;;10.45;3.55;;;;;;;;;;4849343;29;20104;-88
2023/04/25 05:20:06;;;;;;;10.13;2.45;;;;;;;;;;4864709;29;20452;-88
2023/04/25 05:22:33;;;;;;;15.85;3.50;;;;;;;;;;4866223;29;20053;-89
2023/04/25 05:24:59;;;;;;;8.07;2.53;;;;;;;;;;4850252;29;20132;-89
2023/04/25 05:27:25;;;;;;;19.92;4.90;;;;;;;;;;4863692;29;20049;-89
2023/04/25 05:29:52;;;;;;;6.85;2.92;;;;;;;;;;4848083;29;20131;-89
2023/04/25 05:32:18;;;;;;;5.50;2.42;;;;;;;;;;4833665;29;20041;-88
2023/04/25 05:34:44;;;;;;;11.13;3.20;;;;;;;;;;4848154;29;20597;-89
2023/04/25 05:37:10;;;;;;;12.57;3.70;;;;;;;;;;4848286;29;20053;-89
2023/04/25 05:39:36;;;;;;;6.03;2.50;;;;;;;;;;4848103;29;20052;-90
2023/04/25 05:42:03;;;;;;;8.55;2.67;;;;;;;;;;4863671;29;20100;-89
2023/04/25 05:44:29;;;;;;;12.02;2.75;;;;;;;;;;4848188;29;20080;-90
2023/04/25 05:46:55;;;;;;;6.22;2.10;;;;;;;;;;4848446;29;20071;-89
2023/04/25 05:49:22;;;;;;;15.15;3.05;;;;;;;;;;4832563;29;20056;-89
2023/04/25 05:51:48;;;;;;;13.23;2.03;;;;;;;;;;4847636;29;20063;-89
2023/04/25 05:54:14;;;;;;;11.27;2.10;;;;;;;;;;4863748;29;20057;-89
2023/04/25 05:56:40;;;;;;;10.07;2.40;;;;;;;;;;4832822;29;20397;-89
2023/04/25 05:59:06;;;;;;;6.28;2.38;;;;;;;;;;4832862;29;20057;-90
2023/04/25 06:01:32;;;;;;;17.27;3.97;;;;;;;;;;4832379;29;20045;-90
2023/04/25 06:03:58;;;;;;;10.13;2.85;;;;;;;;;;4847384;29;20049;-89
2023/04/25 06:06:25;;;;;;;7.18;2.58;;;;;;;;;;4847404;29;20033;-88
2023/04/25 06:08:51;;;;;;;11.23;3.05;;;;;;;;;;4862566;29;20056;-90
2023/04/25 06:11:17;;;;;;;7.30;1.70;;;;;;;;;;4846983;29;20045;-90
2023/04/25 06:13:43;;;;;;;7.40;1.65;;;;;;;;;;4847206;29;20406;-90
2023/04/25 06:16:10;;;;;;;4.78;1.92;;;;;;;;;;4847518;29;20399;-90
2023/04/25 06:18:36;;;;;;;11.52;2.40;;;;;;;;;;4847156;29;20081;-89
2023/04/25 06:21:02;;;;;;;5.35;2.05;;;;;;;;;;4847496;29;20045;-89
2023/04/25 06:23:28;;;;;;;5.85;1.83;;;;;;;;;;4848132;29;20056;-90
2023/04/25 06:25:54;;;;;;;8.25;1.80;;;;;;;;;;4847293;29;20167;-90
2023/04/25 06:28:21;;;;;;;3.95;1.10;;;;;;;;;;4833163;29;20057;-90
2023/04/25 06:30:48;;;;;;;4.07;1.35;;;;;;;;;;4832869;29;20045;-88
2023/04/25 06:33:14;;;;;;;6.30;1.60;;;;;;;;;;4847484;29;20195;-89
2023/04/25 06:35:40;;;;;;;8.02;2.28;;;;;;;;;;4832675;29;20085;-88
2023/04/25 06:38:06;;;;;;;2.72;1.52;;;;;;;;;;4847646;29;20088;-91
2023/04/25 06:40:32;;;;;;;6.95;1.77;;;;;;;;;;4847281;29;20041;-88
2023/04/25 06:42:58;;;;;;;10.48;1.45;;;;;;;;;;4847457;29;20059;-90
2023/04/25 06:45:24;;;;;;;5.47;1.98;;;;;;;;;;4862783;29;20101;-90
2023/04/25 06:47:50;;;;;;;3.70;1.30;;;;;;;;;;4832402;29;20052;-89
2023/04/25 06:50:16;;;;;;;7.60;2.22;;;;;;;;;;4847250;29;20041;-91
2023/04/25 06:52:42;;;;;;;5.80;1.92;;;;;;;;;;4832285;29;20148;-91
2023/04/25 06:55:09;;;;;;;9.75;2.35;;;;;;;;;;4847102;29;20060;-90
2023/04/25 06:57:35;;;;;;;10.15;1.92;;;;;;;;;;4847526;29;20049;-90
2023/04/25 07:00:01;;;;;;;3.03;1.70;;;;;;;;;;4862825;29;20045;-91
2023/04/25 07:02:27;;;;;;;5.35;1.88;;;;;;;;;;4847485;29;20049;-91
2023/04/25 07:04:55;;;;;;;11.93;2.05;;;;;;;;;;4832970;29;20049;-91
2023/04/25 07:07:21;;;;;;;6.82;1.48;;;;;;;;;;4847609;29;20048;-90
2023/04/25 07:09:47;;;;;;;4.93;1.42;;;;;;;;;;4846832;29;20045;-90
2023/04/25 07:12:13;;;;;;;7.30;2.15;;;;;;;;;;4846418;29;20051;-89
2023/04/25 07:14:39;;;;;;;2.30;1.40;;;;;;;;;;4831578;29;20410;-89
2023/04/25 07:17:06;;;;;;;1.77;1.40;;;;;;;;;;4847112;29;20048;-89
2023/04/25 07:19:33;;;;;;;4.25;1.33;;;;;;;;;;4862599;29;20136;-89
2023/04/25 07:21:59;;;;;;;8.70;2.20;;;;;;;;;;4862509;29;20108;-89
2023/04/25 07:24:25;;;;;;;11.65;1.85;;;;;;;;;;4846846;29;20053;-88
2023/04/25 07:26:51;;;;;;;7.03;2.15;;;;;;;;;;4862605;29;20057;-89
2023/04/25 07:29:17;;;;;;;8.45;1.75;;;;;;;;;;4831729;29;20045;-88
2023/04/25 07:31:43;;;;;;;6.93;1.50;;;;;;;;;;4850075;29;20072;-90
2023/04/25 07:34:10;;;;;;;6.60;2.13;;;;;;;;;;4850880;29;20056;-90
2023/04/25 07:36:36;;;;;;;8.25;1.60;;;;;;;;;;4835337;29;20044;-88
2023/04/25 07:39:02;;;;;;;2.65;1.10;;;;;;;;;;4835420;29;20045;-89
2023/04/25 07:41:28;;;;;;;3.05;1.10;;;;;;;;;;4850633;29;20490;-90
2023/04/25 07:43:54;;;;;;;2.00;1.10;;;;;;;;;;4850174;29;20110;-89
2023/04/25 07:46:26;;;;;;;7.25;1.58;;;;;;;;;;4836692;29;20048;-89
2023/04/25 07:48:52;;;;;;;3.47;1.20;;;;;;;;;;4850277;29;20131;-88
2023/04/25 07:51:19;;;;;;;3.90;1.20;;;;;;;;;;4835211;29;20143;-90
2023/04/25 07:53:46;;;;;;;6.53;1.42;;;;;;;;;;4835143;29;20053;-89
2023/04/25 07:56:12;;;;;;;16.33;1.65;;;;;;;;;;4850369;29;20073;-89
2023/04/25 07:58:39;;;;;;;7.95;1.88;;;;;;;;;;4850226;29;20056;-88
2023/04/25 08:01:05;;;;;;;5.72;1.13;;;;;;;;;;4865419;29;20418;-89
2023/04/25 08:03:31;;;;;;;3.22;1.83;;;;;;;;;;4850934;29;20064;-88
2023/04/25 08:05:57;;;;;;;3.63;1.45;;;;;;;;;;4849895;29;20049;-88
2023/04/25 08:08:23;;;;;;;7.05;0.85;;;;;;;;;;4850019;29;20053;-89
2023/04/25 08:10:52;;;;;;;4.80;1.30;;;;;;;;;;4865553;29;20124;-88
2023/04/25 08:13:18;;;;;;;7.68;2.10;;;;;;;;;;4849482;29;20434;-89
2023/04/25 08:15:44;;;;;;;2.67;0.90;;;;;;;;;;4834857;29;20045;-90
2023/04/25 08:18:10;;;;;;;1.10;0.90;;;;;;;;;;4849720;29;20049;-89
2023/04/25 08:20:36;;;;;;;2.95;1.10;;;;;;;;;;4849957;29;20391;-89
2023/04/25 08:23:03;;;;;;;2.63;1.33;;;;;;;;;;4834313;29;20059;-88
2023/04/25 08:25:29;;;;;;;4.10;1.05;;;;;;;;;;4834255;29;20097;-88
2023/04/25 08:27:55;;;;;;;3.95;0.95;;;;;;;;;;4849823;29;20407;-89
2023/04/25 08:30:22;;;;;;;4.95;1.30;;;;;;;;;;4834578;29;20104;-88
2023/04/25 08:32:48;;;;;;;2.72;0.90;;;;;;;;;;4864851;29;20137;-88
2023/04/25 08:35:14;;;;;;;2.42;1.98;;;;;;;;;;4849283;29;20045;-88
2023/04/25 08:37:40;;;;;;;8.15;2.70;;;;;;;;;;4834168;29;20056;-88
2023/04/25 08:40:06;;;;;;;5.68;1.60;;;;;;;;;;4849069;29;20041;-87
2023/04/25 08:42:35;;;;;;;5.78;1.30;;;;;;;;;;4833814;29;20060;-88
2023/04/25 08:45:02;;;;;;;2.45;1.40;;;;;;;;;;4864710;29;20125;-87
2023/04/25 08:47:30;;;;;;;6.57;2.30;;;;;;;;;;4849114;29;20059;-88
2023/04/25 08:49:56;;;;;;;3.38;2.00;;;;;;;;;;4849107;29;20053;-87
2023/04/25 08:52:30;;;;;;;5.90;1.90;;;6.60;99.90;;;;;;4864048;29;20426;-87
2023/04/25 08:54:56;;;;;;;5.47;1.63;;;;;;;;;;4864077;29;20296;-87
2023/04/25 08:57:23;;;;;;;9.88;1.42;;;;;;;;;;4848909;29;20128;-87
2023/04/25 08:59:49;;;;;;;4.07;1.20;;;;;;;;;;4848729;29;20227;-88
2023/04/25 09:02:17;;;;;;;3.47;1.75;;;;;;;;;;4849843;29;20067;-88
2023/04/25 09:04:44;;;;;;;8.82;1.42;;;;;;;;;;4834121;29;20101;-88
2023/04/25 09:07:10;;;;;;;5.55;1.27;;;;;;;;;;4833483;29;20059;-88
2023/04/25 09:09:36;;;;;;;7.40;1.90;;;;;;;;;;4833570;29;20064;-88
2023/04/25 09:12:02;;;;;;;4.65;1.40;;;;;;;;;;4848693;29;20147;-88
2023/04/25 09:14:28;;;;;;;5.75;1.95;;;;;;;;;;4848743;29;20049;-88
2023/04/25 09:17:00;;;;;;;9.15;3.00;;;;;;;;;;4848646;29;20049;-88
2023/04/25 09:19:39;;;;;;;2.88;1.48;;;8.00;99.90;;;;;;4848772;29;20109;-88
2023/04/25 09:22:05;;;;;;;8.25;2.75;;;;;;;;;;4848573;29;20402;-88
2023/04/25 09:24:44;;;;;;;7.65;1.75;;;7.60;99.90;;;;;;4833492;29;20133;-89
2023/04/25 09:27:11;;;;;;;7.78;2.00;;;;;;;;;;4848856;29;20049;-87
2023/04/25 09:29:38;;;;;;;14.48;2.53;;;;;;;;;;4864142;29;20144;-87
2023/04/25 09:32:24;;;;;;;2.28;1.50;;;;;;;;;;4863547;29;20056;-88
2023/04/25 09:34:51;;;;;;;3.28;1.70;;;;;;;;;;4848571;29;20060;-88
2023/04/25 09:37:22;;;;;;;1.85;1.30;;;8.10;99.90;;;;;;4848567;29;20063;-89
2023/04/25 09:39:49;;;;;;;2.53;1.20;;;;;;;;;;4848089;29;20061;-90
2023/04/25 09:42:17;;;;;;;2.60;1.38;;;8.10;99.90;;;;;;4848491;29;20140;-88
2023/04/25 09:44:44;;;;;;;6.90;2.25;;;8.00;99.90;;;;;;4848412;29;20037;-87
2023/04/25 09:49:45;;;;;;;9.80;1.70;;;;;;;;;;4916102;29;20049;-90
2023/04/25 09:52:18;;;;;;;7.15;1.63;;;;;;;;;;4900135;29;20108;-87
2023/04/25 09:54:45;;;;;;;3.87;1.83;;;;;;;;;;4900670;23;20049;-87
2023/04/25 09:57:15;;;;;;;8.15;2.00;;;;;;;;;;4879951;29;20060;-87
2023/04/25 09:59:46;;;;;;;11.85;2.28;;;;;;;;;;4880453;29;20430;-87
2023/04/25 10:02:12;;;;;;;5.60;2.20;;;;;;;;;;4894114;29;20100;-91
2023/04/25 10:04:38;;;;;;;7.70;1.95;;;;;;;;;;4879146;29;20112;-93
2023/04/25 10:07:08;;;;;;;10.85;2.15;;;;;;;;;;4865617;29;20057;-91
2023/04/25 10:09:37;;;;;;;6.85;1.85;;;;;;;;;;4880019;29;20052;-91
2023/04/25 10:12:03;;;;;;;7.28;1.67;;;;;;;;;;4877263;29;20073;-93
2023/04/25 10:14:30;;;;;;;2.83;1.60;;;;;;;;;;4877735;29;20044;-94
2023/04/25 10:16:58;;;;;;;5.95;2.08;;;8.10;99.90;;;;;;4878721;29;20048;-87
2023/04/25 10:19:25;;;;;;;3.78;1.45;;;;;;;;;;4864125;29;20057;-92
2023/04/25 10:22:27;;;;;;;6.90;1.50;;;;;;;;;;4879639;29;20108;-88
2023/04/25 10:24:53;;;;;;;14.80;2.38;;;;;;;;;;4872151;29;20045;-95
2023/04/25 10:27:19;;;;;;;7.03;1.63;;;;;;;;;;4864042;29;20053;-95
2023/04/25 10:29:45;;;;;;;5.78;1.48;;;;;;;;;;4864433;29;20044;-88
2023/04/25 10:32:11;;;;;;;8.75;2.10;;;;;;;;;;4874992;29;20052;-87
2023/04/25 10:34:41;;;;;;;6.43;1.85;;;;;;;;;;4857951;29;20048;-90
2023/04/25 10:37:11;;;;;;;6.75;1.70;;;;;;;;;;4876833;29;20057;-93
2023/04/25 10:39:39;;;;;;;10.05;2.78;;;;;;;;;;4887736;29;20055;-88
2023/04/25 10:42:07;;;;;;;2.50;1.92;;;;;;;;;;4873999;29;20060;-95
2023/04/25 10:44:33;;;;;;;4.07;1.42;;;;;;;;;;4877663;29;20059;-91
2023/04/25 10:47:00;;;;;;;9.40;2.08;;;;;;;;;;4865048;29;20065;-92
2023/04/25 10:49:30;;;;;;;2.55;1.38;;;8.20;99.90;;;;;;4895537;29;20053;-95
2023/04/25 10:52:20;;;;;;;10.40;2.72;;;;;;;;;;4862263;29;20479;-88
2023/04/25 10:54:52;;;;;;;5.65;1.85;;;;;;;;;;4846291;29;20452;-87
2023/04/25 10:57:46;;;;;;;2.08;1.27;;;8.20;99.90;;;;;;4861951;29;20116;-88
2023/04/25 11:00:14;;;;;;;10.47;2.10;;;;;;;;;;4846575;29;20045;-87
2023/04/25 11:02:46;;;;;;;11.57;2.10;;;;;;;;;;4861976;29;20302;-86
2023/04/25 11:05:32;;;;;;;5.72;2.00;;;;;;;;;;4862196;29;20110;-86
2023/04/25 11:07:59;;;;;;;6.55;1.77;;;;;;;;;;4846698;29;20156;-87
2023/04/25 11:10:29;;;;;;;7.10;1.85;;;;;;;;;;4862331;29;20056;-87
2023/04/25 11:12:55;;;;;;;5.72;2.17;;;;;;;;;;4877649;29;20049;-87
2023/04/25 11:15:21;;;;;;;12.35;1.52;;;;;;;;;;4862185;29;20045;-88
2023/04/25 11:17:47;;;;;;;5.93;1.67;;;;;;;;;;4862212;29;20052;-86
2023/04/25 11:20:15;;;;;;;3.65;1.67;;;;;;;;;;4862094;29;20554;-88
2023/04/25 11:22:41;;;;;;;5.38;1.40;;;;;;;;;;4861915;29;20101;-87
2023/04/25 11:25:08;;;;;;;4.07;1.55;;;;;;;;;;4861843;29;20068;-88
2023/04/25 11:27:34;;;;;;;4.15;1.15;;;;;;;;;;4877752;29;20049;-87
2023/04/25 11:30:11;;;;;;;5.47;1.48;;;9.00;99.90;;;;;;4861200;29;20108;-93
2023/04/25 11:32:37;;;;;;;4.60;1.73;;;;;;;;;;4862555;29;20140;-87
2023/04/25 11:35:03;;;;;;;5.10;2.75;;;;;;;;;;4881126;29;20056;-92
2023/04/25 11:37:30;;;;;;;6.20;1.60;;;;;;;;;;4865211;29;20049;-86
2023/04/25 11:39:56;;;;;;;5.20;1.70;;;;;;;;;;4860620;29;20052;-85
2023/04/25 11:42:22;;;;;;;5.70;2.38;;;;;;;;;;4860046;29;20086;-88
2023/04/25 11:44:48;;;;;;;4.60;1.80;;;;;;;;;;4886183;29;20045;-86
2023/04/25 11:47:14;;;;;;;8.93;1.63;;;;;;;;;;4870500;29;20139;-88
2023/04/25 11:49:40;;;;;;;3.92;1.55;;;;;;;;;;4869038;29;20048;-96
2023/04/25 11:52:07;;;;;;;6.18;1.40;;;;;;;;;;4868813;29;20049;-89
2023/04/25 11:54:35;;;;;;;9.32;2.20;;;;;;;;;;4866633;29;20064;-93
2023/04/25 11:57:01;;;;;;;5.38;1.77;;;;;;;;;;4881410;29;20100;-94
2023/04/25 11:59:28;;;;;;;5.25;1.67;;;;;;;;;;4867350;29;20732;-93
2023/04/25 12:01:54;;;;;;;7.00;1.98;;;;;;;;;;4867365;29;20376;-93
2023/04/25 12:04:24;;;;;;;9.40;1.98;;;;;;;;;;4850288;29;20049;-86
2023/04/25 12:06:51;;;;;;;5.60;2.10;;;;;;;;;;4861718;29;20100;-87
2023/04/25 12:09:18;;;;;;;2.97;1.33;;;;;;;;;;4861432;29;20049;-86
2023/04/25 12:11:45;;;;;;;4.38;1.75;;;;;;;;;;4876800;29;20065;-87
2023/04/25 12:14:12;;;;;;;6.85;1.45;;;;;;;;;;4861877;29;20136;-87
2023/04/25 12:16:42;;;;;;;5.93;1.42;;;;;;;;;;4878746;29;20049;-86
2023/04/25 12:19:08;;;;;;;4.85;2.17;;;;;;;;;;4864739;29;20594;-87
2023/04/25 12:21:35;;;;;;;6.45;1.77;;;;;;;;;;4865331;29;20049;-86
2023/04/25 12:24:18;;;;;;;8.90;1.30;;;;;;;;;;4865121;29;20048;-86
2023/04/25 12:26:47;;;;;;;4.00;1.50;;;;;;;;;;4865087;29;20057;-87
2023/04/25 12:29:17;;;;;;;5.65;1.58;;;;;;;;;;4865135;29;20049;-90
2023/04/25 12:31:44;;;;;;;5.15;1.73;;;;;;;;;;4864535;29;20147;-87
2023/04/25 12:34:11;;;;;;;2.28;1.50;;;;;;;;;;4864770;29;20053;-87
2023/04/25 12:36:37;;;;;;;2.40;1.20;;;;;;;;;;4864747;29;20049;-87
2023/04/25 12:39:04;;;;;;;4.72;1.63;;;;;;;;;;4849077;29;20414;-87
2023/04/25 12:41:30;;;;;;;5.80;1.50;;;;;;;;;;4864475;29;20049;-86
2023/04/25 12:43:56;;;;;;;4.43;1.20;;;;;;;;;;4864273;29;20056;-86
2023/04/25 12:46:22;;;;;;;5.40;1.42;;;;;;;;;;4868958;29;20517;-93
2023/04/25 12:48:49;;;;;;;7.20;1.40;;;;;;;;;;4890795;29;20061;-91
2023/04/25 12:51:15;;;;;;;5.30;1.85;;;;;;;;;;4858892;29;20053;-95
2023/04/25 12:53:41;;;;;;;5.55;1.60;;;;;;;;;;4876603;29;20052;-95
2023/04/25 12:56:08;;;;;;;8.18;2.13;;;;;;;;;;4878192;29;20060;-92
2023/04/25 12:58:34;;;;;;;7.22;2.10;;;;;;;;;;4875820;29;20060;-89
2023/04/25 13:01:00;;;;;;;5.28;1.88;;;;;;;;;;4873310;29;20060;-93
2023/04/25 13:03:26;;;;;;;6.20;1.95;;;;;;;;;;4873115;29;20056;-94
2023/04/25 13:05:52;;;;;;;10.50;2.05;;;;;;;;;;4887649;29;20360;-94
2023/04/25 13:08:19;;;;;;;3.05;1.58;;;;;;;;;;4868684;29;20040;-93
2023/04/25 13:10:45;;;;;;;3.55;1.80;;;;;;;;;;4870604;29;20048;-96
2023/04/25 13:13:11;;;;;;;11.48;2.20;;;;;;;;;;4854594;29;20052;-92
2023/04/25 13:15:37;;;;;;;6.55;1.98;;;;;;;;;;4854918;29;20049;-96
2023/04/25 13:18:05;;;;;;;5.15;1.40;;;;;;;;;;4868598;29;20049;-93
2023/04/25 13:20:32;;;;;;;7.20;1.95;;;;;;;;;;4851853;29;20480;-94
2023/04/25 13:22:58;;;;;;;5.40;2.30;;;;;;;;;;4866776;29;20542;-93
2023/04/25 13:25:24;;;;;;;2.63;1.42;;;;;;;;;;4879366;29;20104;-87
2023/04/25 13:27:50;;;;;;;3.08;1.10;;;;;;;;;;4862814;29;20585;-87
2023/04/25 13:30:16;;;;;;;2.92;1.23;;;;;;;;;;4863918;29;20494;-87
2023/04/25 13:32:43;;;;;;;4.47;1.65;;;;;;;;;;4848010;29;20061;-87
2023/04/25 13:35:11;;;;;;;6.90;1.25;;;;;;;;;;4863820;29;20056;-86
2023/04/25 13:37:37;;;;;;;7.22;1.60;;;;;;;;;;4863341;29;20136;-87
2023/04/25 13:40:05;;;;;;;12.13;2.33;;;;;;;;;;4847737;29;20459;-88
2023/04/25 13:42:31;;;;;;;6.45;1.98;;;;;;;;;;4878684;29;20092;-86
2023/04/25 13:44:57;;;;;;;3.22;1.20;;;;;;;;;;4878733;29;20053;-88
2023/04/25 13:47:23;;;;;;;8.45;2.17;;;;;;;;;;4863286;29;20037;-86
2023/04/25 13:49:50;;;;;;;5.05;1.10;;;;;;;;;;4862991;29;20051;-86
2023/04/25 13:52:16;;;;;;;9.60;1.63;;;;;;;;;;4878493;29;20041;-87
2023/04/25 13:54:42;;;;;;;7.50;2.03;;;;;;;;;;4847889;29;20514;-85
2023/04/25 13:57:08;;;;;;;6.53;1.33;;;;;;;;;;4878798;29;20136;-86
2023/04/25 13:59:34;;;;;;;5.38;1.75;;;;;;;;;;4878681;29;20060;-86
2023/04/25 14:02:00;;;;;;;6.03;1.90;;;;;;;;;;4847544;29;20522;-86
2023/04/25 14:04:27;;;;;;;9.50;2.20;;;;;;;;;;4878434;29;20057;-86
2023/04/25 14:06:53;;;;;;;6.43;1.48;;;;;;;;;;4863153;29;20048;-85
2023/04/25 14:09:22;;;;;;;4.18;1.65;;;;;;;;;;4864140;29;20049;-87
2023/04/25 14:11:48;;;;;;;3.95;2.55;;;;;;;;;;4863516;29;20104;-86
2023/04/25 14:14:16;;;;;;;3.13;1.63;;;;;;;;;;4863711;29;20052;-86
2023/04/25 14:16:42;;;;;;;2.78;1.77;;;;;;;;;;4863607;29;20049;-86
2023/04/25 14:19:08;;;;;;;4.10;1.60;;;;;;;;;;4863485;29;20414;-86
2023/04/25 14:21:34;;;;;;;5.93;1.60;;;;;;;;;;4862761;29;20465;-86
2023/04/25 14:24:01;;;;;;;7.15;1.77;;;;;;;;;;4862507;29;20051;-87
2023/04/25 14:26:27;;;;;;;10.32;1.55;;;;;;;;;;4862833;29;20506;-89
2023/04/25 14:28:53;;;;;;;6.97;1.98;;;;;;;;;;4862880;29;20566;-86
2023/04/25 14:31:19;;;;;;;7.00;1.48;;;;;;;;;;4878117;29;20052;-87
2023/04/25 14:33:45;;;;;;;5.85;2.13;;;;;;;;;;4847580;29;20573;-87
2023/04/25 14:36:11;;;;;;;5.63;1.67;;;;;;;;;;4862751;29;20051;-86